Weather at Narita International Airport

Public forecast

Using degrees Celsius for public forecast. Weather courtesy of forecast.io.

Current aviation weather report (METAR) for Narita International Airport

Retrieved 2021/01/23 12:30 UTC (19 minutes ago):

RJAA 231230Z 35016KT 4000 -RA BR FEW003 SCT004 BKN005 05/04 Q1020 NOSIG

Aviation forecast (TAF) for Narita International Airport

Retrieved 2021/01/23 12:30 UTC (19 minutes ago):

TAF TAF RJAA 231105Z 2312/2418 02016KT 4000 -RA BR FEW005 BKN008 TEMPO 2312/2315 FEW003 BKN005 BECMG 2315/2317 FEW003 BKN005 TEMPO 2321/2403 3000 RA BR TEMPO 2403/2406 02022G32KT BECMG 2406/2409 9999 NSW FEW015 BKN030